Time;durP1;ratioP1;P1;durP2;ratioP2;P2;SDS_P1;SDS_P2;PMS_P1;PMS_P2;Temp;Humidity;BMP_temperature;BMP_pressure;BME280_temperature;BME280_humidity;BME280_pressure;Samples;Min_cycle;Max_cycle;Signal;HPM_P1;HPM_P2
2023/06/21 00:01:08;;;;;;;9.15;7.00;;;;;;;26.99;43.30;99655.41;4331227;33;33891;-67
2023/06/21 00:03:36;;;;;;;12.35;6.90;;;;;;;26.99;43.33;99660.88;4319323;33;33827;-63
2023/06/21 00:06:04;;;;;;;12.18;8.07;;;;;;;26.98;43.32;99646.34;4319252;33;35196;-68
2023/06/21 00:08:32;;;;;;;10.10;7.65;;;;;;;26.97;43.35;99647.44;4332593;33;33783;-69
2023/06/21 00:11:00;;;;;;;9.40;7.68;;;;;;;26.96;43.34;99648.53;4332501;33;33234;-69
2023/06/21 00:13:29;;;;;;;11.70;7.35;;;;;;;26.95;43.36;99644.13;4319364;33;33846;-70
2023/06/21 00:15:57;;;;;;;9.00;7.45;;;;;;;26.95;43.31;99638.62;4332551;33;34029;-69
2023/06/21 00:18:25;;;;;;;7.90;6.78;;;;;;;26.94;43.33;99648.75;4332375;33;34874;-67
2023/06/21 00:20:52;;;;;;;9.15;7.87;;;;;;;26.94;43.36;99650.69;4332542;33;33309;-69
2023/06/21 00:23:20;;;;;;;8.95;7.25;;;;;;;26.94;43.34;99645.19;4319042;33;32804;-70
2023/06/21 00:25:47;;;;;;;11.00;8.02;;;;;;;26.94;43.34;99639.72;4332247;33;33802;-69
2023/06/21 00:28:15;;;;;;;8.57;7.25;;;;;;;26.92;43.33;99639.16;4332373;33;33831;-69
2023/06/21 00:30:46;;;;;;;10.05;8.15;;;;;;;26.92;43.32;99633.69;4329808;33;33665;-69
2023/06/21 00:33:16;;;;;;;9.47;7.97;;;;;;;26.91;43.28;99638.34;4330470;33;34671;-70
2023/06/21 00:35:44;;;;;;;10.07;7.35;;;;;;;26.91;43.29;99640.25;4347489;33;33634;-69
2023/06/21 00:38:12;;;;;;;9.25;7.80;;;;;;;26.91;43.28;99640.25;4347026;33;33457;-69
2023/06/21 00:40:40;;;;;;;9.27;7.57;;;;;;;26.90;43.30;99649.53;4333801;33;33334;-69
2023/06/21 00:43:07;;;;;;;13.30;8.57;;;;;;;26.90;43.32;99636.66;4333877;33;33501;-70
2023/06/21 00:45:45;;;;;;;10.25;7.97;;;;;;;26.89;43.32;99650.63;4333698;33;34677;-70
2023/06/21 00:48:13;;;;;;;8.25;6.78;;;;;;;26.88;43.32;99649.78;4334806;33;33612;-69
2023/06/21 00:50:40;;;;;;;10.45;7.72;;;;;;;26.88;43.34;99655.25;4346978;33;33451;-70
2023/06/21 00:53:09;;;;;;;8.77;7.00;;;;;;;26.87;43.34;99659.09;4317913;33;34679;-70
2023/06/21 00:55:40;;;;;;;9.10;6.93;;;;;;;26.87;43.35;99653.62;4316131;33;34904;-69
2023/06/21 00:58:09;;;;;;;12.85;8.10;;;;;;;26.89;43.34;99653.34;4315654;33;34341;-70
2023/06/21 01:00:39;;;;;;;10.88;7.55;;;;;;;26.86;43.34;99654.69;4316263;33;33449;-70
2023/06/21 01:03:06;;;;;;;9.43;7.40;;;;;;;26.87;43.32;99652.78;4317489;33;33966;-68
2023/06/21 01:05:34;;;;;;;10.23;7.70;;;;;;;26.85;43.30;99649.47;4316336;33;33830;-69
2023/06/21 01:08:11;;;;;;;8.88;7.35;;;;;;;26.84;43.30;99651.37;4317337;33;33988;-70
2023/06/21 01:11:14;;;;;;;10.00;7.53;;;;;;;26.84;43.36;99645.06;4317611;33;34157;-69
2023/06/21 01:14:12;;;;;;;10.38;7.68;;;;;;;26.87;43.24;99653.62;4279284;33;34760;-72
2023/06/21 01:16:45;;;;;;;9.30;7.37;;;;;;;26.85;43.25;99654.94;4316467;33;34228;-71
2023/06/21 01:19:36;;;;;;;9.02;7.00;;;;;;;26.82;43.22;99649.97;4316139;33;34901;-71
2023/06/21 01:22:32;;;;;;;10.32;7.80;;;;;;;26.84;43.17;99653.28;4310777;33;33463;-71
2023/06/21 01:25:12;;;;;;;8.65;7.53;;;;;;;26.82;43.19;99660.94;4301792;33;33789;-72
2023/06/21 01:28:06;;;;;;;11.60;7.28;;;;;;;26.80;43.17;99652.13;4317101;33;33915;-70
2023/06/21 01:30:34;;;;;;;11.35;7.07;;;;;;;26.80;43.10;99652.94;4272141;33;34142;-71
2023/06/21 01:33:05;;;;;;;11.05;8.18;;;;;;;26.79;43.09;99651.31;4303975;33;33376;-71
2023/06/21 01:35:33;;;;;;;10.13;7.80;;;;;;;26.78;43.10;99649.66;4304361;33;33669;-70
2023/06/21 01:38:02;;;;;;;9.40;7.20;;;;;;;26.78;43.09;99646.09;4317130;33;34122;-70
2023/06/21 01:40:29;;;;;;;8.85;6.57;;;;;;;26.78;43.09;99643.34;4303901;33;34141;-69
2023/06/21 01:42:57;;;;;;;9.70;7.25;;;;;;;26.78;43.08;99643.34;4317123;33;33357;-70
2023/06/21 01:45:25;;;;;;;10.35;6.93;;;;;;;26.78;43.04;99646.91;4292685;33;32508;-70
2023/06/21 01:47:53;;;;;;;9.45;6.93;;;;;;;26.77;43.14;99637.06;4317509;33;34911;-70
2023/06/21 01:50:21;;;;;;;10.75;7.03;;;;;;;26.78;43.05;99641.44;4293507;33;33012;-70
2023/06/21 01:52:50;;;;;;;8.68;6.70;;;;;;;26.77;43.05;99647.19;4305668;33;33986;-70
2023/06/21 01:55:18;;;;;;;10.27;7.12;;;;;;;26.78;43.03;99646.09;4305436;33;34895;-71
2023/06/21 01:57:45;;;;;;;10.40;6.93;;;;;;;26.79;43.01;99658.69;4305652;33;34749;-71
2023/06/21 02:00:17;;;;;;;8.70;7.18;;;;;;;26.78;43.03;99659.78;4305896;33;33734;-71
2023/06/21 02:03:03;;;;;;;9.02;7.22;;;;;;;26.77;42.93;99663.59;4306077;33;33461;-71
2023/06/21 02:05:31;;;;;;;9.30;6.80;;;;;;;26.79;42.85;99655.94;4306055;33;34784;-69
2023/06/21 02:08:00;;;;;;;8.00;6.90;;;;;;;26.76;42.96;99657.28;4305764;33;34930;-70
2023/06/21 02:10:29;;;;;;;9.32;7.68;;;;;;;26.74;42.93;99667.66;4293646;33;33458;-69
2023/06/21 02:12:57;;;;;;;8.77;7.20;;;;;;;26.74;42.81;99664.09;4305283;33;32699;-71
2023/06/21 02:15:25;;;;;;;8.35;6.85;;;;;;;26.76;42.81;99653.72;4318595;33;33545;-69
2023/06/21 02:17:52;;;;;;;8.30;7.18;;;;;;;26.74;42.86;99661.34;4305304;33;33148;-71
2023/06/21 02:20:22;;;;;;;10.90;7.15;;;;;;;26.74;42.80;99664.91;4318569;33;33919;-70
2023/06/21 02:22:50;;;;;;;8.70;6.57;;;;;;;26.73;42.79;99668.75;4305340;33;34095;-70
2023/06/21 02:25:17;;;;;;;8.50;6.35;;;;;;;26.74;42.70;99664.91;4317369;33;34421;-70
2023/06/21 02:27:45;;;;;;;8.25;7.28;;;;;;;26.73;42.68;99662.44;4318571;33;33922;-71
2023/06/21 02:30:13;;;;;;;10.35;7.10;;;;;;;26.72;42.65;99661.62;4328112;33;33923;-71
2023/06/21 02:32:40;;;;;;;10.30;7.45;;;;;;;26.71;42.64;99660.75;4333226;33;34191;-71
2023/06/21 02:35:10;;;;;;;8.85;6.55;;;;;;;26.71;42.66;99655.28;4333174;33;34589;-71
2023/06/21 02:37:37;;;;;;;8.15;6.65;;;;;;;26.73;42.61;99657.78;4319741;33;33737;-71
2023/06/21 02:40:09;;;;;;;9.88;6.47;;;;;;;26.73;42.62;99657.78;4333070;33;34574;-71
2023/06/21 02:42:37;;;;;;;9.23;6.68;;;;;;;26.71;42.61;99655.28;4333052;33;33493;-71
2023/06/21 02:45:06;;;;;;;8.90;7.40;;;;;;;26.71;42.57;99649.81;4307773;33;34695;-72
2023/06/21 02:47:33;;;;;;;10.43;7.20;;;;;;;26.71;42.56;99657.19;4333104;33;34749;-70
2023/06/21 02:50:02;;;;;;;9.35;6.90;;;;;;;26.71;42.55;99649.00;4307738;33;33558;-72
2023/06/21 02:52:30;;;;;;;9.13;7.18;;;;;;;26.71;42.57;99651.72;4319802;33;33362;-72
2023/06/21 02:54:59;;;;;;;8.27;6.60;;;;;;;26.70;42.57;99648.16;4320046;33;33979;-72
2023/06/21 02:57:26;;;;;;;8.98;7.50;;;;;;;26.70;42.55;99659.13;4332805;33;33619;-71
2023/06/21 02:59:54;;;;;;;8.27;6.80;;;;;;;26.69;42.55;99654.72;4332786;33;34048;-68
2023/06/21 03:02:21;;;;;;;8.85;6.97;;;;;;;26.70;42.57;99663.75;4333044;33;34370;-70
2023/06/21 03:04:50;;;;;;;9.70;7.22;;;;;;;26.68;42.57;99655.81;4332910;33;33768;-71
2023/06/21 03:07:18;;;;;;;8.70;6.85;;;;;;;26.69;42.57;99648.44;4333064;33;34068;-69
2023/06/21 03:09:46;;;;;;;9.02;6.85;;;;;;;26.69;42.54;99646.50;4333077;33;33426;-71
2023/06/21 03:12:13;;;;;;;10.68;7.15;;;;;;;26.68;42.54;99641.31;4332741;33;33448;-71
2023/06/21 03:14:42;;;;;;;8.05;7.12;;;;;;;26.68;42.53;99647.59;4319606;33;34799;-70
2023/06/21 03:17:09;;;;;;;9.98;7.30;;;;;;;26.68;42.58;99655.81;4319431;33;33979;-69
2023/06/21 03:19:37;;;;;;;9.07;7.40;;;;;;;26.67;42.57;99648.69;4332762;33;33772;-68
2023/06/21 03:22:06;;;;;;;8.77;7.35;;;;;;;26.68;42.59;99655.00;4333149;33;33327;-70
2023/06/21 03:24:34;;;;;;;9.90;6.93;;;;;;;26.67;42.62;99648.69;4332729;33;34533;-70
2023/06/21 03:27:02;;;;;;;11.40;7.07;;;;;;;26.66;42.62;99655.22;4332826;33;34684;-70
2023/06/21 03:29:32;;;;;;;9.70;7.10;;;;;;;26.67;42.64;99656.03;4333041;33;33544;-70
2023/06/21 03:32:00;;;;;;;11.15;7.35;;;;;;;26.66;42.65;99654.41;4331872;33;33391;-70
2023/06/21 03:34:29;;;;;;;9.57;7.35;;;;;;;26.66;42.63;99646.19;4332633;33;33536;-70
2023/06/21 03:36:56;;;;;;;9.98;7.07;;;;;;;26.66;42.65;99651.66;4332885;33;34030;-70
2023/06/21 03:39:24;;;;;;;9.35;7.62;;;;;;;26.66;42.67;99646.19;4333059;33;33975;-71
2023/06/21 03:41:52;;;;;;;9.70;7.80;;;;;;;26.66;42.69;99652.47;4331596;33;33050;-70
2023/06/21 03:44:20;;;;;;;8.90;7.57;;;;;;;26.65;42.72;99645.34;4307713;33;33850;-68
2023/06/21 03:46:48;;;;;;;10.00;7.87;;;;;;;26.66;42.72;99651.66;4319416;33;34405;-71
2023/06/21 03:49:16;;;;;;;9.50;8.05;;;;;;;26.65;42.74;99639.88;4319303;33;32938;-71
2023/06/21 03:51:44;;;;;;;9.02;7.50;;;;;;;26.66;42.72;99652.47;4332710;33;33716;-71
2023/06/21 03:54:12;;;;;;;9.18;7.72;;;;;;;26.66;42.70;99651.66;4332443;33;33806;-70
2023/06/21 03:56:40;;;;;;;10.40;8.02;;;;;;;26.66;42.72;99646.19;4332724;33;33505;-68
2023/06/21 03:59:08;;;;;;;10.73;8.02;;;;;;;26.66;42.76;99652.47;4332693;33;33629;-70
2023/06/21 04:01:35;;;;;;;10.65;7.60;;;;;;;26.67;42.79;99661.53;4319104;33;32253;-70
2023/06/21 04:04:03;;;;;;;12.23;8.32;;;;;;;26.66;42.82;99654.41;4332680;33;33787;-70
2023/06/21 04:06:31;;;;;;;10.73;7.75;;;;;;;26.66;42.87;99648.91;4332509;33;34672;-70
2023/06/21 04:08:58;;;;;;;10.63;7.82;;;;;;;26.66;42.90;99649.75;4331476;33;33804;-70
2023/06/21 04:11:26;;;;;;;13.70;7.95;;;;;;;26.65;42.94;99650.84;4332600;33;33395;-71
2023/06/21 04:13:53;;;;;;;12.02;7.87;;;;;;;26.66;43.00;99657.13;4332408;33;34375;-70
2023/06/21 04:16:21;;;;;;;10.02;7.40;;;;;;;26.65;43.00;99664.50;4319223;33;33547;-71
2023/06/21 04:18:50;;;;;;;10.00;7.80;;;;;;;26.66;43.01;99671.63;4331373;33;32686;-72
2023/06/21 04:21:17;;;;;;;12.15;8.20;;;;;;;26.65;43.04;99675.47;4332575;33;33887;-71
2023/06/21 04:23:45;;;;;;;10.30;7.28;;;;;;;26.66;43.10;99677.12;4332467;33;33691;-71
2023/06/21 04:26:13;;;;;;;10.30;8.27;;;;;;;26.66;43.11;99687.22;4332381;33;33730;-70
2023/06/21 04:28:41;;;;;;;10.45;7.62;;;;;;;26.66;43.10;99701.75;4332464;33;33350;-71
2023/06/21 04:31:08;;;;;;;10.18;7.75;;;;;;;26.66;43.12;99706.41;4331940;33;33488;-71
2023/06/21 04:33:36;;;;;;;10.27;8.20;;;;;;;26.66;43.14;99707.22;4332326;33;33627;-69
2023/06/21 04:36:04;;;;;;;9.95;8.07;;;;;;;26.66;43.12;99707.22;4332654;33;34160;-71
2023/06/21 04:38:33;;;;;;;10.02;7.45;;;;;;;26.67;43.12;99708.91;4332186;33;33851;-68
2023/06/21 04:41:01;;;;;;;11.63;8.38;;;;;;;26.68;43.11;99726.97;4332525;33;34052;-68
2023/06/21 04:43:28;;;;;;;11.05;8.38;;;;;;;26.67;43.09;99719.84;4332362;33;33947;-71
2023/06/21 04:45:58;;;;;;;9.18;7.50;;;;;;;26.68;43.10;99728.88;4318949;33;34483;-69
2023/06/21 04:48:26;;;;;;;9.77;7.37;;;;;;;26.68;43.10;99720.66;4318969;33;33477;-70
2023/06/21 04:50:53;;;;;;;12.90;7.28;;;;;;;26.68;43.12;99724.25;4332203;33;33535;-71
2023/06/21 04:53:28;;;;;;;9.77;7.87;;;;;;;26.67;43.25;99722.59;4318717;33;32782;-70
2023/06/21 04:55:57;;;;;;;9.27;7.00;;;;;;;26.69;43.34;99714.13;4332081;33;33745;-70
2023/06/21 04:58:25;;;;;;;9.43;7.55;;;;;;;26.69;43.39;99712.19;4332252;33;33919;-65
2023/06/21 05:00:54;;;;;;;10.95;7.70;;;;;;;26.69;43.43;99714.94;4307524;33;33296;-70
2023/06/21 05:03:22;;;;;;;10.32;7.35;;;;;;;26.72;43.43;99710.87;4332139;33;34754;-66
2023/06/21 05:05:49;;;;;;;12.57;7.60;;;;;;;26.70;43.54;99710.28;4327820;33;33577;-69
2023/06/21 05:08:17;;;;;;;10.98;6.82;;;;;;;26.72;43.69;99713.63;4318026;33;33874;-68
2023/06/21 05:10:45;;;;;;;10.90;7.25;;;;;;;26.73;43.71;99707.06;4331445;33;33329;-68
2023/06/21 05:13:12;;;;;;;8.23;6.78;;;;;;;26.75;43.75;99695.84;4331316;33;34345;-70
2023/06/21 05:15:39;;;;;;;8.75;6.60;;;;;;;26.75;43.78;99696.69;4331553;33;34801;-61
2023/06/21 05:18:07;;;;;;;8.77;7.22;;;;;;;26.76;43.81;99692.03;4331521;33;34566;-67
2023/06/21 05:20:35;;;;;;;9.45;7.22;;;;;;;26.77;43.82;99696.44;4317761;33;34086;-69
2023/06/21 05:23:03;;;;;;;10.55;7.80;;;;;;;26.78;43.84;99712.63;4331714;33;33628;-70
2023/06/21 05:25:31;;;;;;;9.45;7.18;;;;;;;26.79;43.89;99713.44;4331321;33;35554;-69
2023/06/21 05:28:06;;;;;;;9.85;7.15;;;;;;;26.79;43.87;99708.78;4330685;33;33129;-67
2023/06/21 05:30:34;;;;;;;9.30;7.15;;;;;;;26.81;43.89;99719.47;4331020;33;33473;-64
2023/06/21 05:33:01;;;;;;;9.27;7.50;;;;;;;26.82;43.89;99721.16;4331390;33;33694;-69
2023/06/21 05:35:29;;;;;;;10.07;7.20;;;;;;;26.80;43.93;99718.66;4331079;33;33792;-66
2023/06/21 05:37:56;;;;;;;8.15;7.03;;;;;;;26.82;43.93;99723.91;4331340;33;33992;-69
2023/06/21 05:40:24;;;;;;;9.00;7.70;;;;;;;26.82;43.92;99716.50;4331208;33;33324;-69
2023/06/21 05:42:52;;;;;;;7.82;6.47;;;;;;;26.82;43.92;99716.50;4330950;33;34671;-66
2023/06/21 06:47:29;;;;;;;16.37;6.32;;;;;;;26.89;44.12;99719.06;5165448;27;21351;-67
2023/06/21 06:49:57;;;;;;;10.00;6.65;;;;;;;26.88;44.13;99717.41;4354043;32;33733;-68
2023/06/21 06:52:24;;;;;;;8.55;6.62;;;;;;;26.87;44.13;99724.78;4354746;32;35317;-67
2023/06/21 06:54:52;;;;;;;8.07;6.03;;;;;;;26.89;44.11;99725.34;4379301;32;34372;-67
2023/06/21 06:57:20;;;;;;;9.77;6.55;;;;;;;26.89;44.08;99724.53;4366255;32;34303;-66
2023/06/21 07:00:08;;;;;;;8.60;6.95;;;;;;;26.90;44.05;99717.97;4379250;32;34862;-68
2023/06/21 07:02:36;;;;;;;9.45;6.97;;;;;;;26.92;44.00;99724.03;4354697;32;34172;-66
2023/06/21 07:05:04;;;;;;;10.68;7.60;;;;;;;26.93;43.97;99722.94;4379401;32;34382;-68
2023/06/21 07:07:31;;;;;;;11.25;7.82;;;;;;;26.93;43.97;99725.69;4366889;32;35323;-65
2023/06/21 07:09:59;;;;;;;9.00;8.07;;;;;;;26.94;43.94;99727.34;4379228;32;35308;-66
2023/06/21 07:12:27;;;;;;;10.32;7.78;;;;;;;26.94;43.94;99728.16;4379300;32;35243;-66
2023/06/21 07:14:54;;;;;;;12.95;8.77;;;;;;;26.95;43.96;99729.00;4379086;32;34753;-67
2023/06/21 07:17:23;;;;;;;11.02;9.40;;;;;;;26.94;43.97;99730.06;4354474;32;35091;-67
2023/06/21 07:19:51;;;;;;;9.60;8.10;;;;;;;26.94;44.04;99724.59;4366957;32;35232;-68
2023/06/21 07:22:18;;;;;;;12.57;9.55;;;;;;;26.96;44.10;99730.69;4366546;32;35102;-67
2023/06/21 07:24:47;;;;;;;12.45;9.05;;;;;;;26.98;44.15;99723.03;4366635;32;35033;-68
2023/06/21 07:27:14;;;;;;;14.45;10.07;;;;;;;26.98;44.19;99717.53;4342553;32;35185;-68
2023/06/21 07:29:44;;;;;;;14.77;9.20;;;;;;;27.00;44.19;99715.41;4363614;32;35518;-67
2023/06/21 07:32:12;;;;;;;10.80;8.73;;;;;;;27.01;44.27;99711.56;4353687;32;33843;-66
2023/06/21 07:34:40;;;;;;;12.88;9.13;;;;;;;27.04;44.28;99713.78;4357643;32;33364;-67
2023/06/21 07:37:08;;;;;;;11.93;9.80;;;;;;;27.05;44.31;99707.25;4356783;32;33883;-66
2023/06/21 07:39:35;;;;;;;13.10;9.55;;;;;;;27.07;44.34;99713.28;4356018;32;33982;-66
2023/06/21 07:42:07;;;;;;;15.30;9.20;;;;;;;27.09;44.32;99715.81;4347391;33;34542;-66
2023/06/21 07:44:41;;;;;;;14.13;10.32;;;;;;;27.09;44.33;99705.69;4332736;33;34286;-66
2023/06/21 07:47:08;;;;;;;14.82;9.95;;;;;;;27.11;44.36;99697.22;4332610;33;33957;-66
2023/06/21 07:49:36;;;;;;;11.50;9.50;;;;;;;27.10;44.40;99696.41;4343534;33;34870;-67
2023/06/21 07:52:04;;;;;;;11.32;9.38;;;;;;;27.11;44.38;99699.97;4344802;33;33976;-65
2023/06/21 07:54:31;;;;;;;12.35;9.38;;;;;;;27.13;44.37;99689.56;4347327;33;33459;-67
2023/06/21 08:25:08;;;;;;;13.05;8.77;;;;;;;27.15;44.48;99729.34;4330986;33;20176;-68
2023/06/21 08:27:36;;;;;;;12.10;9.10;;;;;;;27.14;44.57;99735.03;4296790;33;32495;-66
2023/06/21 08:30:08;;;;;;;12.70;9.20;;;;;;;27.13;44.58;99738.88;4327224;33;33080;-68
2023/06/21 08:32:35;;;;;;;16.65;9.95;;;;;;;27.13;44.58;99736.94;4332508;33;33981;-64
2023/06/21 08:35:04;;;;;;;17.55;9.98;;;;;;;27.14;44.57;99735.91;4332405;33;34842;-67
2023/06/21 08:37:31;;;;;;;12.25;9.40;;;;;;;27.15;44.56;99743.03;4308086;33;33605;-67
2023/06/21 08:39:59;;;;;;;12.20;8.82;;;;;;;27.16;44.54;99741.94;4292838;33;32630;-67
2023/06/21 08:42:27;;;;;;;13.20;9.55;;;;;;;27.17;44.51;99742.75;4304518;33;33841;-66
2023/06/21 08:44:54;;;;;;;12.02;9.07;;;;;;;27.18;44.51;99747.16;4304526;33;34795;-67
2023/06/21 08:47:26;;;;;;;11.95;8.82;;;;;;;27.18;44.49;99756.19;4304614;33;33806;-68
2023/06/21 08:49:57;;;;;;;11.38;8.48;;;;;;;27.18;44.48;99753.47;4304406;33;31948;-68
2023/06/21 08:52:24;;;;;;;;;;;;;;;27.19;44.46;99768.84;4315879;33;33786;-67
2023/06/21 08:55:01;;;;;;;11.52;9.07;;;;;;;27.31;44.22;99773.37;4330235;33;35037;-67
2023/06/21 08:57:30;;;;;;;12.88;9.38;;;;;;;27.24;44.37;99770.81;4316550;33;34643;-67
2023/06/21 08:59:59;;;;;;;11.63;8.60;;;;;;;27.20;44.42;99767.75;4318410;33;33374;-68
2023/06/21 09:02:58;;;;;;;16.67;9.15;;;;;;;27.19;44.46;99770.75;4303223;33;33636;-65
2023/06/21 09:05:33;;;;;;;12.27;9.57;;;;;;;27.24;44.39;99770.00;4304618;33;34692;-68
2023/06/21 09:08:01;;;;;;;10.90;8.60;;;;;;;27.22;44.44;99770.22;4303515;33;34769;-67
2023/06/21 09:10:32;;;;;;;13.15;9.40;;;;;;;27.20;44.52;99775.97;4314039;33;34019;-67
2023/06/21 09:13:00;;;;;;;13.70;9.27;;;;;;;27.20;44.56;99767.75;4289734;33;32957;-68
2023/06/21 09:15:28;;;;;;;10.00;8.57;;;;;;;27.21;44.56;99774.88;4301914;33;33706;-68
2023/06/21 09:17:56;;;;;;;13.35;8.82;;;;;;;27.22;44.58;99775.69;4290055;33;33154;-68
2023/06/21 09:20:28;;;;;;;13.57;9.57;;;;;;;27.25;44.58;99774.38;4317073;33;33059;-68
2023/06/21 09:22:57;;;;;;;14.35;9.23;;;;;;;27.23;44.60;99776.53;4317853;33;33433;-67
2023/06/21 09:25:25;;;;;;;12.80;9.68;;;;;;;27.23;44.57;99773.78;4302808;33;33303;-66
2023/06/21 09:27:53;;;;;;;12.07;7.85;;;;;;;27.21;44.56;99766.66;4312763;33;33330;-67
2023/06/21 09:30:21;;;;;;;12.40;9.18;;;;;;;27.23;44.54;99762.84;4303357;33;33484;-67
2023/06/21 09:33:05;;;;;;;12.27;8.95;;;;;;;27.24;44.51;99765.34;4320170;33;34729;-67
2023/06/21 09:35:33;;;;;;;11.55;9.05;;;;;;;27.24;44.43;99776.28;4318569;33;34420;-68
2023/06/21 09:38:01;;;;;;;12.05;9.23;;;;;;;27.25;44.47;99767.00;4318299;33;33220;-67
2023/06/21 09:40:30;;;;;;;16.50;9.75;;;;;;;27.27;44.89;99775.78;4330667;33;33220;-65
2023/06/21 09:42:57;;;;;;;12.00;8.65;;;;;;;27.27;45.04;99778.50;4303738;33;33955;-68
2023/06/21 09:45:25;;;;;;;11.93;9.30;;;;;;;27.29;45.04;99781.84;4306281;33;33530;-67
2023/06/21 09:47:53;;;;;;;11.73;9.38;;;;;;;27.29;45.20;99783.75;4316793;33;33638;-66
2023/06/21 09:50:21;;;;;;;15.73;9.50;;;;;;;27.28;45.26;99791.16;4303704;33;33144;-66
2023/06/21 09:52:48;;;;;;;15.75;10.02;;;;;;;27.30;45.30;99793.63;4303801;33;34640;-66
2023/06/21 09:55:16;;;;;;;14.73;9.45;;;;;;;27.30;45.42;99799.94;4296551;33;33746;-66
2023/06/21 09:57:45;;;;;;;14.48;9.38;;;;;;;27.31;45.41;99798.03;4317131;33;34055;-67
2023/06/21 10:00:13;;;;;;;10.13;8.90;;;;;;;27.29;45.36;99772.78;4303582;33;33674;-68
2023/06/21 10:02:42;;;;;;;;;;;;;;;27.30;45.35;99779.94;4303962;33;34684;-66
2023/06/21 10:05:16;;;;;;;11.60;8.80;;;;;;;27.40;45.08;99766.38;4303754;33;34145;-67
2023/06/21 10:07:45;;;;;;;13.45;9.45;;;;;;;27.33;45.29;99763.81;4304843;33;33895;-68
2023/06/21 10:10:13;;;;;;;12.68;9.18;;;;;;;27.30;45.39;99764.31;4293350;33;33659;-67
2023/06/21 10:12:53;;;;;;;14.98;9.57;;;;;;;27.30;45.52;99763.50;4293627;33;34626;-67
2023/06/21 10:15:23;;;;;;;12.37;9.05;;;;;;;27.31;45.63;99771.44;4294337;33;34164;-65
2023/06/21 10:17:52;;;;;;;10.52;9.27;;;;;;;27.31;45.70;99762.41;4318644;33;34575;-68
2023/06/21 10:20:33;;;;;;;11.12;9.35;;;;;;;27.31;45.81;99768.72;4306831;33;34220;-67
2023/06/21 10:23:01;;;;;;;12.90;10.32;;;;;;;27.32;45.87;99767.63;4293142;33;33628;-66
2023/06/21 10:25:28;;;;;;;12.75;10.27;;;;;;;27.34;46.07;99787.37;4313590;33;33606;-66
2023/06/21 10:27:59;;;;;;;13.45;9.43;;;;;;;27.36;46.37;99771.50;4319704;33;33852;-66
2023/06/21 10:30:27;;;;;;;13.65;10.65;;;;;;;27.38;46.31;99769.38;4296188;33;32144;-66
2023/06/21 10:32:55;;;;;;;13.23;9.38;;;;;;;27.38;46.42;99774.03;4308172;33;34696;-67
2023/06/21 10:35:24;;;;;;;13.65;10.32;;;;;;;27.40;46.44;99766.38;4312917;33;34676;-66
2023/06/21 10:38:22;;;;;;;17.23;10.55;;;;;;;27.39;46.53;99773.75;4307836;33;33876;-66
2023/06/21 10:40:50;;;;;;;13.43;10.10;;;;;;;27.43;46.59;99779.56;4320051;33;33390;-67
2023/06/21 10:43:19;;;;;;;15.10;10.68;;;;;;;27.43;46.57;99777.66;4319821;33;34539;-65
2023/06/21 10:45:47;;;;;;;12.50;9.68;;;;;;;27.43;46.56;99779.56;4309489;33;33942;-68
2023/06/21 10:48:16;;;;;;;13.23;9.63;;;;;;;27.43;46.59;99785.03;4293470;33;34660;-66
2023/06/21 10:50:43;;;;;;;13.10;10.32;;;;;;;27.45;46.63;99780.13;4293413;33;33548;-66
2023/06/21 10:53:11;;;;;;;12.27;10.02;;;;;;;27.44;46.72;99781.22;4318822;33;33948;-67
2023/06/21 10:55:41;;;;;;;14.77;9.98;;;;;;;27.44;46.78;99794.91;4305161;33;33998;-65
2023/06/21 10:58:09;;;;;;;13.38;9.90;;;;;;;27.45;46.84;99805.63;4319461;33;33635;-67
2023/06/21 11:00:37;;;;;;;14.52;11.12;;;;;;;27.48;46.87;99797.97;4319778;33;34204;-66
2023/06/21 11:03:05;;;;;;;16.02;10.35;;;;;;;27.48;46.94;99800.72;4319886;33;34111;-67
2023/06/21 11:05:32;;;;;;;18.12;11.40;;;;;;;27.49;46.94;99803.19;4333039;33;34740;-68
2023/06/21 11:08:00;;;;;;;16.33;12.25;;;;;;;27.49;46.98;99802.37;4305919;33;33397;-68
2023/06/21 11:10:36;;;;;;;17.70;12.20;;;;;;;27.49;46.96;99803.19;4318597;33;33627;-66
2023/06/21 11:13:03;;;;;;;17.85;12.07;;;;;;;27.49;47.00;99800.47;4318490;33;33992;-66
2023/06/21 11:15:31;;;;;;;18.55;12.40;;;;;;;27.49;47.05;99794.97;4304992;33;33615;-66
2023/06/21 11:18:00;;;;;;;18.08;11.85;;;;;;;27.50;47.08;99796.63;4330328;33;33932;-65
2023/06/21 11:20:31;;;;;;;21.83;13.27;;;;;;;27.50;47.07;99790.31;4319555;33;33200;-65
2023/06/21 11:23:01;;;;;;;20.92;12.80;;;;;;;27.52;47.03;99788.19;4332781;33;34319;-66
2023/06/21 11:43:55;;;;;;;24.77;13.27;;;;;;;27.55;47.54;99773.94;4572419;27;20165;-65
2023/06/21 11:46:24;;;;;;;19.20;12.37;;;;;;;27.55;47.57;99777.50;4333619;33;34552;-65
2023/06/21 11:48:58;;;;;;;24.73;13.13;;;;;;;27.54;47.59;99764.91;4347586;33;33776;-66
2023/06/21 11:51:29;;;;;;;21.55;12.55;;;;;;;27.57;47.53;99771.78;4347522;33;34699;-65
2023/06/21 11:53:59;;;;;;;19.77;13.20;;;;;;;27.55;47.57;99774.78;4347629;33;33267;-66
2023/06/21 11:56:34;;;;;;;17.90;12.35;;;;;;;27.55;47.54;99769.28;4321801;33;34748;-65
2023/06/21 11:59:06;;;;;;;23.98;12.68;;;;;;;27.55;47.52;99762.97;4347416;33;34132;-64
2023/06/21 12:01:34;;;;;;;22.17;14.05;;;;;;;27.56;47.55;99761.88;4347350;33;33980;-64
2023/06/21 12:04:02;;;;;;;22.48;13.73;;;;;;;27.58;47.57;99760.56;4347690;33;33668;-64
2023/06/21 12:06:30;;;;;;;22.40;13.73;;;;;;;27.58;47.68;99755.09;4347302;33;34163;-64
2023/06/21 12:08:57;;;;;;;18.70;12.80;;;;;;;27.59;47.71;99753.16;4347195;33;34882;-64
2023/06/21 12:11:26;;;;;;;24.15;13.15;;;;;;;27.60;47.67;99755.66;4334011;33;33528;-64
2023/06/21 12:13:53;;;;;;;27.52;13.88;;;;;;;27.61;47.71;99759.25;4347367;33;33683;-64
2023/06/21 12:16:23;;;;;;;20.35;13.57;;;;;;;27.62;47.73;99750.75;4333838;33;33431;-63
2023/06/21 12:18:51;;;;;;;18.83;12.80;;;;;;;27.62;47.72;99741.72;4334189;33;33843;-64
2023/06/21 12:21:19;;;;;;;23.65;12.70;;;;;;;27.64;47.70;99745.00;4347333;33;33816;-64
2023/06/21 12:23:46;;;;;;;23.62;13.57;;;;;;;27.63;47.65;99738.69;4347626;32;33359;-63
2023/06/21 12:26:15;;;;;;;28.45;13.95;;;;;;;27.65;47.65;99741.16;4351447;32;33653;-63
2023/06/21 12:28:43;;;;;;;29.17;15.00;;;;;;;27.64;47.59;99740.34;4348916;32;34056;-63
2023/06/21 12:31:17;;;;;;;24.58;14.15;;;;;;;27.66;47.54;99745.59;4328369;33;33946;-64
2023/06/21 12:33:45;;;;;;;18.62;12.77;;;;;;;27.65;47.55;99741.16;4338633;33;33467;-65
2023/06/21 12:36:25;;;;;;;19.10;12.82;;;;;;;27.68;47.51;99748.91;4339477;33;34654;-64
2023/06/21 12:39:01;;;;;;;16.02;11.55;;;;;;;27.65;47.49;99747.50;4336269;33;34594;-63
2023/06/21 12:41:29;;;;;;;19.90;11.98;;;;;;;27.64;47.45;99754.06;4319559;33;34093;-63
2023/06/21 12:43:59;;;;;;;16.42;11.90;;;;;;;27.65;47.40;99753.00;4338606;33;34307;-63
2023/06/21 12:46:27;;;;;;;20.60;12.37;;;;;;;27.66;47.36;99757.37;4333858;33;33584;-62
2023/06/21 12:48:56;;;;;;;17.23;12.73;;;;;;;27.66;47.31;99751.06;4346806;33;34005;-63
2023/06/21 12:51:25;;;;;;;18.63;11.97;;;;;;;27.66;47.26;99749.16;4333686;33;33941;-62
2023/06/21 12:53:55;;;;;;;21.45;12.73;;;;;;;27.67;47.20;99741.75;4346927;33;33275;-63
2023/06/21 12:56:38;;;;;;;19.35;12.18;;;;;;;27.68;47.17;99748.91;4346952;33;33766;-63
2023/06/21 12:59:05;;;;;;;16.80;11.23;;;;;;;27.67;47.17;99741.75;4334859;33;34201;-64
2023/06/21 13:01:34;;;;;;;17.98;12.40;;;;;;;27.66;47.11;99738.19;4347652;32;33843;-64
2023/06/21 13:04:28;;;;;;;16.70;12.18;;;;;;;27.66;47.12;99740.94;4346914;33;33470;-63
2023/06/21 13:06:57;;;;;;;18.85;13.00;;;;;;;27.70;47.02;99736.59;4344363;33;33846;-63
2023/06/21 13:09:25;;;;;;;23.27;12.40;;;;;;;27.69;47.01;99726.69;4346801;33;34004;-64
2023/06/21 13:11:52;;;;;;;19.40;12.80;;;;;;;27.70;47.03;99738.53;4346393;33;35100;-64
2023/06/21 13:14:20;;;;;;;19.10;12.82;;;;;;;27.68;47.05;99736.00;4334424;32;33198;-62
2023/06/21 13:16:47;;;;;;;20.65;13.05;;;;;;;27.70;47.00;99735.78;4345748;32;33935;-63
2023/06/21 13:19:15;;;;;;;21.80;12.45;;;;;;;27.71;46.97;99734.69;4337862;33;34899;-64
2023/06/21 13:21:43;;;;;;;20.48;12.27;;;;;;;27.70;46.97;99736.59;4345268;33;35117;-63
2023/06/21 13:24:10;;;;;;;21.65;13.07;;;;;;;27.71;46.98;99720.97;4346140;33;34658;-63
2023/06/21 13:26:38;;;;;;;17.85;12.00;;;;;;;27.70;47.00;99722.06;4345948;33;34797;-63